createdAt,value
2023-12-04T00:01:52.101Z,59.39
2023-12-04T00:04:18.674Z,59.70
2023-12-04T00:06:45.599Z,59.32
2023-12-04T00:09:12.266Z,59.36
2023-12-04T00:11:38.861Z,59.25
2023-12-04T00:14:05.515Z,59.85
2023-12-04T00:16:35.573Z,59.63
2023-12-04T00:19:02.280Z,59.50
2023-12-04T00:21:28.942Z,59.35
2023-12-04T00:23:55.535Z,59.72
2023-12-04T00:26:22.096Z,59.20
2023-12-04T00:28:48.671Z,59.80
2023-12-04T00:31:15.337Z,59.60
2023-12-04T00:33:42.059Z,59.52
2023-12-04T00:36:09.341Z,59.71
2023-12-04T00:38:36.090Z,59.71
2023-12-04T00:41:02.614Z,60.01
2023-12-04T00:43:29.236Z,59.57
2023-12-04T00:45:55.762Z,59.59
2023-12-04T00:48:22.409Z,59.54
2023-12-04T00:50:49.337Z,60.13
2023-12-04T00:53:15.899Z,59.75
2023-12-04T00:55:42.579Z,60.00
2023-12-04T00:58:09.268Z,59.95
2023-12-04T01:00:35.864Z,60.07
2023-12-04T01:03:02.527Z,59.93
2023-12-04T01:05:29.116Z,59.75
2023-12-04T01:07:56.763Z,59.72
2023-12-04T01:10:23.838Z,60.04
2023-12-04T01:12:50.415Z,59.63
2023-12-04T01:15:17.194Z,59.79
2023-12-04T01:17:43.812Z,60.08
2023-12-04T01:20:10.765Z,59.76
2023-12-04T01:22:37.621Z,59.82
2023-12-04T01:25:04.635Z,60.14
2023-12-04T01:27:31.237Z,59.78
2023-12-04T01:29:57.867Z,60.31
2023-12-04T01:32:24.469Z,59.56
2023-12-04T01:34:51.086Z,59.64
2023-12-04T01:37:17.603Z,59.71
2023-12-04T01:39:44.270Z,60.49
2023-12-04T01:42:11.811Z,60.34
2023-12-04T01:44:38.407Z,59.73
2023-12-04T01:47:05.560Z,60.47
2023-12-04T01:49:32.421Z,60.38
2023-12-04T01:51:59.186Z,59.81
2023-12-04T01:54:26.442Z,60.52
2023-12-04T01:56:53.137Z,60.03
2023-12-04T01:59:19.850Z,60.29
2023-12-04T02:01:46.548Z,60.57
2023-12-04T02:04:13.351Z,59.82
2023-12-04T02:06:41.890Z,59.84
2023-12-04T02:09:13.034Z,60.15
2023-12-04T02:11:40.359Z,59.86
2023-12-04T02:14:07.537Z,60.13
2023-12-04T02:16:39.836Z,60.39
2023-12-04T02:19:08.728Z,60.12
2023-12-04T02:21:35.361Z,60.26
2023-12-04T02:24:01.991Z,60.44
2023-12-04T02:26:33.363Z,60.67
2023-12-04T02:29:06.254Z,60.65
2023-12-04T02:31:35.494Z,60.30
2023-12-04T02:34:05.063Z,60.10
2023-12-04T02:36:32.319Z,59.81
2023-12-04T02:38:59.378Z,60.21
2023-12-04T02:41:25.933Z,60.44
2023-12-04T02:43:52.461Z,59.90
2023-12-04T02:46:19.025Z,60.26
2023-12-04T02:48:45.818Z,60.40
2023-12-04T02:51:12.501Z,60.21
2023-12-04T02:53:39.014Z,60.11
2023-12-04T02:56:06.101Z,60.08
2023-12-04T02:58:35.159Z,60.14
2023-12-04T03:01:01.774Z,60.37
2023-12-04T03:03:28.339Z,60.20
2023-12-04T03:05:55.053Z,60.04
2023-12-04T03:08:21.598Z,60.79
2023-12-04T03:10:48.165Z,60.13
2023-12-04T03:13:14.700Z,60.27
2023-12-04T03:15:41.420Z,60.76
2023-12-04T03:18:09.324Z,60.10
2023-12-04T03:20:37.528Z,60.73
2023-12-04T03:23:04.110Z,60.36
2023-12-04T03:25:30.650Z,60.58
2023-12-04T03:27:57.697Z,60.15
2023-12-04T03:30:24.212Z,60.78
2023-12-04T03:32:50.862Z,60.83
2023-12-04T03:35:17.437Z,60.65
2023-12-04T03:37:43.923Z,60.12
2023-12-04T03:40:11.025Z,60.98
2023-12-04T03:42:37.684Z,60.59
2023-12-04T03:45:05.122Z,60.56
2023-12-04T03:47:31.670Z,60.17
2023-12-04T03:49:58.460Z,60.84
2023-12-04T03:52:24.978Z,60.76
2023-12-04T03:54:52.072Z,60.97
2023-12-04T03:57:18.641Z,60.90
2023-12-04T03:59:46.126Z,60.81
2023-12-04T04:02:12.985Z,60.73
2023-12-04T04:04:39.504Z,60.80
2023-12-04T04:07:06.765Z,59.95
2023-12-04T04:09:33.405Z,60.46
2023-12-04T04:11:59.983Z,60.86
2023-12-04T04:14:26.531Z,60.75
2023-12-04T04:16:53.076Z,60.64
2023-12-04T04:19:19.655Z,60.12
2023-12-04T04:21:46.319Z,61.03
2023-12-04T04:24:12.887Z,60.67
2023-12-04T04:26:39.460Z,60.85
2023-12-04T04:29:06.273Z,60.10
2023-12-04T04:31:32.930Z,60.25
2023-12-04T04:33:59.567Z,60.19
2023-12-04T04:36:26.196Z,60.64
2023-12-04T04:38:52.750Z,60.81
2023-12-04T04:41:19.394Z,60.03
2023-12-04T04:43:45.983Z,60.84
2023-12-04T04:46:12.537Z,60.03
2023-12-04T04:48:39.274Z,60.95
2023-12-04T04:51:05.904Z,60.84
2023-12-04T04:53:32.502Z,60.41
2023-12-04T04:55:59.202Z,60.62
2023-12-04T04:58:25.818Z,61.06
2023-12-04T05:00:52.462Z,60.39
2023-12-04T05:03:19.109Z,60.97
2023-12-04T05:05:45.821Z,60.35
2023-12-04T05:08:12.441Z,60.54
2023-12-04T05:10:40.417Z,61.12
2023-12-04T05:13:06.982Z,60.72
2023-12-04T05:15:33.630Z,60.29
2023-12-04T05:18:00.325Z,60.49
2023-12-04T05:20:27.546Z,60.68
2023-12-04T05:22:54.059Z,60.39
2023-12-04T05:25:20.885Z,60.55
2023-12-04T05:27:49.017Z,61.15
2023-12-04T05:30:16.925Z,60.76
2023-12-04T05:32:43.702Z,60.60
2023-12-04T05:35:10.330Z,60.24
2023-12-04T05:37:37.008Z,60.97
2023-12-04T05:40:05.104Z,61.09
2023-12-04T05:42:31.875Z,61.00
2023-12-04T05:44:59.117Z,61.17
2023-12-04T05:47:25.691Z,60.71
2023-12-04T05:49:52.297Z,61.03
2023-12-04T05:52:19.014Z,60.37
2023-12-04T05:54:45.574Z,60.98
2023-12-04T05:57:12.263Z,60.39
2023-12-04T05:59:38.915Z,60.85
2023-12-04T06:02:05.548Z,60.84
2023-12-04T06:04:32.295Z,60.82
2023-12-04T06:06:58.867Z,61.06
2023-12-04T06:09:25.469Z,60.98
2023-12-04T06:11:52.009Z,60.89
2023-12-04T06:14:18.499Z,61.11
2023-12-04T06:16:45.035Z,60.49
2023-12-04T06:19:11.690Z,61.04
2023-12-04T06:21:38.292Z,60.32
2023-12-04T06:24:08.114Z,60.98
2023-12-04T06:26:37.446Z,61.01
2023-12-04T06:29:04.304Z,60.63
2023-12-04T06:31:31.187Z,61.15
2023-12-04T06:33:58.055Z,61.15
2023-12-04T06:36:26.671Z,60.63
2023-12-04T06:38:54.258Z,61.31
2023-12-04T06:41:22.548Z,60.52
2023-12-04T06:43:52.477Z,60.34
2023-12-04T06:46:22.165Z,60.54
2023-12-04T06:48:49.710Z,61.44
2023-12-04T06:51:16.421Z,60.80
2023-12-04T06:53:42.954Z,60.75
2023-12-04T06:56:10.211Z,60.78
2023-12-04T06:58:36.733Z,60.92
2023-12-04T07:01:03.534Z,60.39
2023-12-04T07:03:30.266Z,61.06
2023-12-04T07:05:56.883Z,60.99
2023-12-04T07:08:23.477Z,61.41
2023-12-04T07:10:50.084Z,61.27
2023-12-04T07:13:17.378Z,61.14
2023-12-04T07:15:44.113Z,61.02
2023-12-04T07:18:10.771Z,61.37
2023-12-04T07:20:37.315Z,60.57
2023-12-04T07:23:03.803Z,61.21
2023-12-04T07:25:30.394Z,61.50
2023-12-04T07:27:59.156Z,61.43
2023-12-04T07:30:26.468Z,61.05
2023-12-04T07:32:54.600Z,61.30
2023-12-04T07:35:21.184Z,61.27
2023-12-04T07:37:47.804Z,60.99
2023-12-04T07:40:14.458Z,60.39
2023-12-04T07:42:41.094Z,61.50
2023-12-04T07:45:08.405Z,61.44
2023-12-04T07:47:34.933Z,60.56
2023-12-04T07:50:01.519Z,61.40
2023-12-04T07:52:28.095Z,61.52
2023-12-04T07:54:55.208Z,61.37
2023-12-04T07:57:21.795Z,61.14
2023-12-04T07:59:50.921Z,60.82
2023-12-04T08:02:18.702Z,61.05
2023-12-04T08:04:45.273Z,60.38
2023-12-04T08:07:12.572Z,60.72
2023-12-04T08:09:39.167Z,61.46
2023-12-04T08:12:05.994Z,61.49
2023-12-04T08:14:33.821Z,61.49
2023-12-04T08:17:00.431Z,60.57
2023-12-04T08:19:27.079Z,61.27
2023-12-04T08:21:53.670Z,60.93
2023-12-04T08:24:20.324Z,61.08
2023-12-04T08:26:47.068Z,61.29
2023-12-04T08:29:14.097Z,61.46
2023-12-04T08:31:40.682Z,61.51
2023-12-04T08:34:07.242Z,61.43
2023-12-04T08:36:44.933Z,60.76
2023-12-04T08:39:13.817Z,61.35
2023-12-04T08:41:45.428Z,60.63
2023-12-04T08:44:17.203Z,60.97
2023-12-04T08:46:45.374Z,61.32
2023-12-04T08:49:12.028Z,60.65
2023-12-04T08:51:38.778Z,61.15
2023-12-04T08:54:17.661Z,60.55
2023-12-04T08:56:45.686Z,60.77
2023-12-04T08:59:14.022Z,61.64
2023-12-04T09:01:41.202Z,61.00
2023-12-04T09:04:09.583Z,60.89
2023-12-04T09:09:09.952Z,60.65
2023-12-04T09:11:45.161Z,61.40
2023-12-04T09:14:12.241Z,61.23
2023-12-04T09:16:38.961Z,61.29
2023-12-04T09:19:05.986Z,60.99
2023-12-04T09:21:32.887Z,61.38
2023-12-04T09:23:59.569Z,61.11
2023-12-04T09:26:26.224Z,60.85
2023-12-04T09:28:53.331Z,61.19
2023-12-04T09:31:20.479Z,60.72
2023-12-04T09:33:48.328Z,60.69
2023-12-04T09:36:14.968Z,61.08
2023-12-04T09:38:41.567Z,60.75
2023-12-04T09:41:11.713Z,60.85
2023-12-04T09:43:39.175Z,61.44
2023-12-04T09:46:06.514Z,61.57
2023-12-04T09:48:33.980Z,60.98
2023-12-04T09:51:01.297Z,61.33
2023-12-04T09:53:28.227Z,61.70
2023-12-04T09:56:00.862Z,61.23
2023-12-04T09:58:33.443Z,60.73
2023-12-04T10:01:02.156Z,61.54
2023-12-04T10:03:30.970Z,61.13
2023-12-04T10:05:58.449Z,60.91
2023-12-04T10:08:25.082Z,61.50
2023-12-04T10:10:51.683Z,61.42
2023-12-04T10:13:55.191Z,61.13
2023-12-04T10:16:05.547Z,60.60
2023-12-04T10:18:33.090Z,61.11
2023-12-04T10:21:00.786Z,61.57
2023-12-04T10:23:40.635Z,61.46
2023-12-04T10:26:08.629Z,61.16
2023-12-04T10:28:36.791Z,61.64
2023-12-04T10:31:03.950Z,60.74
2023-12-04T10:33:32.089Z,61.38
2023-12-04T10:36:01.448Z,61.48
2023-12-04T10:38:28.645Z,61.22
2023-12-04T10:40:55.150Z,61.34
2023-12-04T10:43:23.287Z,61.65
2023-12-04T10:45:50.845Z,61.19
2023-12-04T10:48:19.785Z,61.63
2023-12-04T10:50:48.474Z,61.34
2023-12-04T10:53:16.742Z,61.20
2023-12-04T10:55:44.149Z,61.37
2023-12-04T10:58:12.924Z,61.14
2023-12-04T11:00:46.767Z,61.06
2023-12-04T11:03:24.227Z,60.65
2023-12-04T11:05:56.906Z,61.20
2023-12-04T11:08:24.534Z,60.85
2023-12-04T11:11:10.435Z,61.00
2023-12-04T11:13:46.954Z,61.14
2023-12-04T11:16:20.941Z,60.74
2023-12-04T11:19:02.934Z,61.44
2023-12-04T11:21:33.392Z,60.72
2023-12-04T11:24:00.741Z,61.08
2023-12-04T11:26:28.339Z,60.99
2023-12-04T11:28:56.037Z,60.73
2023-12-04T11:31:23.392Z,60.55
2023-12-04T11:33:49.981Z,61.57
2023-12-04T11:36:17.262Z,61.33
2023-12-04T11:38:48.602Z,61.03
2023-12-04T11:41:23.186Z,60.92
2023-12-04T11:43:55.844Z,61.58
2023-12-04T11:46:29.895Z,61.39
2023-12-04T11:48:58.556Z,60.56
2023-12-04T11:51:40.749Z,61.26
2023-12-04T11:54:11.748Z,61.04
2023-12-04T11:56:38.405Z,61.18
2023-12-04T11:59:07.257Z,61.23
2023-12-04T12:01:40.851Z,61.08
2023-12-04T12:04:09.011Z,61.44
2023-12-04T12:06:36.148Z,61.70
2023-12-04T12:09:02.927Z,60.77
2023-12-04T12:11:29.545Z,61.28
2023-12-04T12:13:56.371Z,61.66
2023-12-04T12:16:23.297Z,61.49
2023-12-04T12:18:50.175Z,60.81
2023-12-04T12:21:17.344Z,61.12
2023-12-04T12:23:44.760Z,60.70
2023-12-04T12:26:12.412Z,61.33
2023-12-04T12:28:39.049Z,60.99
2023-12-04T12:31:06.609Z,61.49
2023-12-04T12:33:33.536Z,61.36
2023-12-04T12:36:03.720Z,61.60
2023-12-04T12:38:41.041Z,61.33
2023-12-04T12:41:09.526Z,61.37
2023-12-04T12:43:36.414Z,60.84
2023-12-04T12:46:06.824Z,60.59
2023-12-04T12:48:33.697Z,60.92
2023-12-04T12:51:00.412Z,61.61
2023-12-04T12:53:26.984Z,60.71
2023-12-04T12:55:53.454Z,61.12
2023-12-04T12:58:22.037Z,61.17
2023-12-04T13:00:49.594Z,61.58
2023-12-04T13:03:20.640Z,61.48
2023-12-04T13:05:48.831Z,61.04
2023-12-04T13:08:18.472Z,61.38
2023-12-04T13:10:45.108Z,60.50
2023-12-04T13:13:12.947Z,61.54
2023-12-04T13:15:39.605Z,61.00
2023-12-04T13:18:06.258Z,60.81
2023-12-04T13:20:32.792Z,61.37
2023-12-04T13:22:59.352Z,61.10
2023-12-04T13:25:28.966Z,61.29
2023-12-04T13:27:57.063Z,60.74
2023-12-04T13:30:23.694Z,60.97
2023-12-04T13:32:51.790Z,60.67
2023-12-04T13:35:19.652Z,60.88
2023-12-04T13:37:46.640Z,61.36
2023-12-04T13:40:17.689Z,61.09
2023-12-04T13:43:02.894Z,60.44
2023-12-04T13:45:29.476Z,61.44
2023-12-04T13:47:56.066Z,60.96
2023-12-04T13:50:22.685Z,60.48
2023-12-04T13:52:56.659Z,61.55
2023-12-04T13:55:37.771Z,63.58
2023-12-04T13:58:04.757Z,61.82
2023-12-04T14:00:31.438Z,60.52
2023-12-04T14:03:05.821Z,59.78
2023-12-04T14:05:33.285Z,58.13
2023-12-04T14:08:00.238Z,57.88
2023-12-04T14:10:27.852Z,55.92
2023-12-04T14:12:57.084Z,55.12
2023-12-04T14:15:24.824Z,53.95
2023-12-04T14:17:52.521Z,53.33
2023-12-04T14:20:19.417Z,53.03
2023-12-04T14:22:47.373Z,52.51
2023-12-04T14:25:14.093Z,52.89
2023-12-04T14:27:46.009Z,52.45
2023-12-04T14:30:13.007Z,52.60
2023-12-04T14:32:47.126Z,52.25
2023-12-04T14:35:16.256Z,52.49
2023-12-04T14:37:43.223Z,52.66
2023-12-04T14:40:10.225Z,52.30
2023-12-04T14:42:37.460Z,52.83
2023-12-04T14:45:04.228Z,52.96
2023-12-04T14:47:30.827Z,54.42
2023-12-04T14:49:57.485Z,55.99
2023-12-04T14:52:24.442Z,57.83
2023-12-04T14:55:13.999Z,58.64
2023-12-04T14:57:40.671Z,59.80
2023-12-04T15:00:10.641Z,60.44
2023-12-04T15:02:57.063Z,60.63
2023-12-04T15:05:39.325Z,60.31
2023-12-04T15:08:24.682Z,61.01
2023-12-04T15:11:03.122Z,60.90
2023-12-04T15:13:32.267Z,60.25
2023-12-04T15:16:14.227Z,60.20
2023-12-04T15:18:53.505Z,60.75
2023-12-04T15:21:20.180Z,60.27
2023-12-04T15:23:46.688Z,60.59
2023-12-04T15:26:13.280Z,60.29
2023-12-04T15:28:39.948Z,60.99
2023-12-04T15:31:06.782Z,60.81
2023-12-04T15:33:33.261Z,60.12
2023-12-04T15:36:00.704Z,60.40
2023-12-04T15:38:27.352Z,60.15
2023-12-04T15:40:56.210Z,60.55
2023-12-04T15:43:23.498Z,60.30
2023-12-04T15:45:50.106Z,61.22
2023-12-04T15:48:16.859Z,62.18
2023-12-04T15:50:44.141Z,63.12
2023-12-04T15:53:10.746Z,63.78
2023-12-04T15:55:37.250Z,63.95
2023-12-04T15:58:03.812Z,64.50
2023-12-04T16:00:30.405Z,64.59
2023-12-04T16:02:57.021Z,64.55
2023-12-04T16:05:24.553Z,64.88
2023-12-04T16:07:51.212Z,64.64
2023-12-04T16:10:17.822Z,64.71
2023-12-04T16:12:44.667Z,65.52
2023-12-04T16:15:11.507Z,65.67
2023-12-04T16:17:39.718Z,65.48
2023-12-04T16:20:12.473Z,65.05
2023-12-04T16:22:41.651Z,65.55
2023-12-04T16:25:08.720Z,65.55
2023-12-04T16:27:35.308Z,65.36
2023-12-04T16:30:02.584Z,65.34
2023-12-04T16:32:29.197Z,65.57
2023-12-04T16:34:56.240Z,65.53
2023-12-04T16:37:23.504Z,65.39
2023-12-04T16:39:50.171Z,65.87
2023-12-04T16:42:16.833Z,65.90
2023-12-04T16:44:43.424Z,65.74
2023-12-04T16:47:09.938Z,65.88
2023-12-04T16:49:36.658Z,66.18
2023-12-04T16:52:03.477Z,65.96
2023-12-04T16:54:30.074Z,66.14
2023-12-04T16:56:56.606Z,65.60
2023-12-04T16:59:23.244Z,65.56
2023-12-04T17:01:49.834Z,65.57
2023-12-04T17:04:16.585Z,66.20
2023-12-04T17:06:43.939Z,66.04
2023-12-04T17:09:16.099Z,65.93
2023-12-04T17:11:43.534Z,66.01
2023-12-04T17:14:10.155Z,66.17
2023-12-04T17:16:36.752Z,65.91
2023-12-04T17:19:03.450Z,65.86
2023-12-04T17:21:30.047Z,65.73
2023-12-04T17:23:56.613Z,65.79
2023-12-04T17:26:23.089Z,65.80
2023-12-04T17:28:49.603Z,65.67
2023-12-04T17:31:19.677Z,65.64
2023-12-04T17:33:47.408Z,65.89
2023-12-04T17:36:14.183Z,65.84
2023-12-04T17:38:42.547Z,65.90
2023-12-04T17:41:11.265Z,65.48
2023-12-04T17:43:37.899Z,65.70
2023-12-04T17:46:05.184Z,65.80
2023-12-04T17:48:32.040Z,65.66
2023-12-04T17:50:58.564Z,65.69
2023-12-04T17:53:25.150Z,65.77
2023-12-04T17:55:51.714Z,65.69
2023-12-04T17:58:18.251Z,65.72
2023-12-04T18:00:45.129Z,66.11
2023-12-04T18:03:11.892Z,65.96
2023-12-04T18:05:38.562Z,66.11
2023-12-04T18:08:05.345Z,65.66
2023-12-04T18:10:32.596Z,65.92
2023-12-04T18:12:59.159Z,65.71
2023-12-04T18:15:25.824Z,65.89
2023-12-04T18:17:52.588Z,65.73
2023-12-04T18:20:19.929Z,65.86
2023-12-04T18:22:51.882Z,65.30
2023-12-04T18:25:20.307Z,65.61
2023-12-04T18:27:47.021Z,65.79
2023-12-04T18:30:17.312Z,65.69
2023-12-04T18:32:44.410Z,65.68
2023-12-04T18:35:11.769Z,65.51
2023-12-04T18:38:12.348Z,65.57
2023-12-04T18:40:39.179Z,65.95
2023-12-04T18:43:07.493Z,65.72
2023-12-04T18:45:35.623Z,65.38
2023-12-04T18:48:09.200Z,65.70
2023-12-04T18:50:38.529Z,65.61
2023-12-04T18:53:05.487Z,65.50
2023-12-04T18:55:32.125Z,65.78
2023-12-04T18:57:58.689Z,65.72
2023-12-04T19:00:26.065Z,65.49
2023-12-04T19:02:53.951Z,65.46
2023-12-04T19:05:21.719Z,65.74
2023-12-04T19:07:48.432Z,65.87
2023-12-04T19:10:15.056Z,65.99
2023-12-04T19:12:41.733Z,65.85
2023-12-04T19:15:11.137Z,65.84
2023-12-04T19:17:38.049Z,65.53
2023-12-04T19:20:05.814Z,65.36
2023-12-04T19:22:32.715Z,65.13
2023-12-04T19:24:59.302Z,65.69
2023-12-04T19:27:25.903Z,65.67
2023-12-04T19:29:52.828Z,65.85
2023-12-04T19:32:21.593Z,65.84
2023-12-04T19:34:49.574Z,65.81
2023-12-04T19:37:16.140Z,65.93
2023-12-04T19:39:43.095Z,65.70
2023-12-04T19:42:09.855Z,65.67
2023-12-04T19:44:36.481Z,65.27
2023-12-04T19:47:03.011Z,65.84
2023-12-04T19:49:30.816Z,65.76
2023-12-04T19:51:57.453Z,65.65
2023-12-04T19:54:24.221Z,65.54
2023-12-04T19:56:50.829Z,65.79
2023-12-04T19:59:17.384Z,65.54
2023-12-04T20:01:44.476Z,65.50
2023-12-04T20:04:11.008Z,65.55
2023-12-04T20:06:37.948Z,65.72
2023-12-04T20:09:05.906Z,65.55
2023-12-04T20:11:33.327Z,65.44
2023-12-04T20:13:59.812Z,65.54
2023-12-04T20:16:28.930Z,65.80
2023-12-04T20:18:55.763Z,65.52
2023-12-04T20:21:22.889Z,65.59
2023-12-04T20:23:49.432Z,65.42
2023-12-04T20:26:15.990Z,65.58
2023-12-04T20:28:42.937Z,65.68
2023-12-04T20:31:09.465Z,65.61
2023-12-04T20:33:36.595Z,65.31
2023-12-04T20:36:08.577Z,65.61
2023-12-04T20:38:35.675Z,65.56
2023-12-04T20:41:02.246Z,65.39
2023-12-04T20:43:29.718Z,65.25
2023-12-04T20:45:56.371Z,65.30
2023-12-04T20:48:23.028Z,64.90
2023-12-04T20:50:51.283Z,65.46
2023-12-04T20:53:17.889Z,65.38
2023-12-04T20:55:46.908Z,65.47
2023-12-04T20:58:13.739Z,65.69
2023-12-04T21:00:42.950Z,65.43
2023-12-04T21:03:10.705Z,65.39
2023-12-04T21:05:37.597Z,65.08
2023-12-04T21:08:04.710Z,65.54
2023-12-04T21:10:31.431Z,65.54
2023-12-04T21:12:58.288Z,65.38
2023-12-04T21:15:25.454Z,65.56
2023-12-04T21:17:52.322Z,65.55
2023-12-04T21:20:21.536Z,65.16
2023-12-04T21:22:48.127Z,65.18
2023-12-04T21:25:14.691Z,65.57
2023-12-04T21:27:41.620Z,65.16
2023-12-04T21:30:11.380Z,64.92
2023-12-04T21:32:38.144Z,65.41
2023-12-04T21:35:05.872Z,65.53
2023-12-04T21:37:32.448Z,65.54
2023-12-04T21:39:59.591Z,65.17
2023-12-04T21:42:26.685Z,65.51
2023-12-04T21:44:53.269Z,65.65
2023-12-04T21:47:19.867Z,65.26
2023-12-04T21:49:46.793Z,65.58
2023-12-04T21:52:13.498Z,65.43
2023-12-04T21:54:40.198Z,65.57
2023-12-04T21:57:06.742Z,65.54
2023-12-04T21:59:33.657Z,64.91
2023-12-04T22:02:00.308Z,65.34
2023-12-04T22:04:27.077Z,65.32
2023-12-04T22:06:53.850Z,65.11
2023-12-04T22:09:23.140Z,65.13
2023-12-04T22:11:51.509Z,65.40
2023-12-04T22:14:18.536Z,65.00
2023-12-04T22:16:45.045Z,65.36
2023-12-04T22:19:11.778Z,65.43
2023-12-04T22:21:38.358Z,65.27
2023-12-04T22:24:05.761Z,65.36
2023-12-04T22:26:32.730Z,65.36
2023-12-04T22:28:59.370Z,65.03
2023-12-04T22:31:25.994Z,64.81
2023-12-04T22:33:52.571Z,65.49
2023-12-04T22:36:19.222Z,65.02
2023-12-04T22:38:45.795Z,64.92
2023-12-04T22:41:12.353Z,65.39
2023-12-04T22:43:39.872Z,65.46
2023-12-04T22:46:09.977Z,64.73
2023-12-04T22:48:38.508Z,65.21
2023-12-04T22:51:08.516Z,65.35
2023-12-04T22:53:35.485Z,65.47
2023-12-04T22:56:02.068Z,65.62
2023-12-04T22:58:28.657Z,64.82
2023-12-04T23:00:55.818Z,65.59
2023-12-04T23:03:22.607Z,65.09
2023-12-04T23:05:49.885Z,65.35
2023-12-04T23:08:18.623Z,65.26
2023-12-04T23:10:45.588Z,64.91
2023-12-04T23:13:13.002Z,64.75
2023-12-04T23:15:39.783Z,65.10
2023-12-04T23:18:06.540Z,65.22
2023-12-04T23:20:33.090Z,65.00
2023-12-04T23:22:59.591Z,65.54
2023-12-04T23:25:26.203Z,65.19
2023-12-04T23:27:52.757Z,64.67
2023-12-04T23:30:20.032Z,65.35
2023-12-04T23:32:46.823Z,65.28
2023-12-04T23:35:13.465Z,64.76
2023-12-04T23:37:40.116Z,65.00
2023-12-04T23:40:07.079Z,65.43
2023-12-04T23:42:33.706Z,65.35
2023-12-04T23:45:00.511Z,64.60
2023-12-04T23:47:27.050Z,65.23
2023-12-04T23:49:54.114Z,65.38
2023-12-04T23:52:20.560Z,65.31
2023-12-04T23:54:47.162Z,65.11
2023-12-04T23:57:13.770Z,64.76
2023-12-04T23:59:40.339Z,65.11
